Time;durP1;ratioP1;P1;durP2;ratioP2;P2;SDS_P1;SDS_P2;PMS_P1;PMS_P2;Temp;Humidity;BMP_temperature;BMP_pressure;BME280_temperature;BME280_humidity;BME280_pressure;Samples;Min_cycle;Max_cycle;Signal;HPM_P1;HPM_P2
2023/10/25 00:02:21;;;;;;;1.60;1.17;;;17.40;49.10;;;;;;5875468;24;20210;-86
2023/10/25 00:04:56;;;;;;;2.47;1.20;;;17.40;49.10;;;;;;5820738;24;20154;-86
2023/10/25 00:07:45;;;;;;;1.55;1.30;;;17.40;49.20;;;;;;5790487;24;20269;-85
2023/10/25 00:10:31;;;;;;;2.15;1.30;;;17.40;49.20;;;;;;5838174;24;20163;-85
2023/10/25 00:13:21;;;;;;;1.83;1.30;;;17.40;49.20;;;;;;5867095;24;20142;-85
2023/10/25 00:15:48;;;;;;;1.35;1.23;;;17.40;49.20;;;;;;5817983;24;20159;-85
2023/10/25 00:18:21;;;;;;;1.40;1.23;;;17.50;49.20;;;;;;5811555;24;20156;-85
2023/10/25 00:20:59;;;;;;;1.20;1.10;;;17.40;49.20;;;;;;5827068;24;20161;-85
2023/10/25 00:23:59;;;;;;;1.50;1.20;;;17.40;49.20;;;;;;5807806;24;20195;-86
2023/10/25 00:26:33;;;;;;;1.15;1.05;;;17.40;49.40;;;;;;5820896;24;20174;-86
2023/10/25 00:29:01;;;;;;;2.22;1.23;;;17.40;49.30;;;;;;5799894;24;20163;-85
2023/10/25 00:31:32;;;;;;;3.28;1.60;;;17.40;49.40;;;;;;5839394;24;20235;-85
2023/10/25 00:34:29;;;;;;;1.30;1.20;;;17.40;49.40;;;;;;5854207;24;20172;-86
2023/10/25 00:37:11;;;;;;;1.73;1.20;;;17.40;49.40;;;;;;5834460;24;20156;-85
2023/10/25 00:39:47;;;;;;;1.38;1.05;;;17.40;49.50;;;;;;5860939;24;20162;-87
2023/10/25 00:42:24;;;;;;;1.33;1.23;;;17.40;49.60;;;;;;5896862;24;20372;-86
2023/10/25 00:44:59;;;;;;;1.38;1.20;;;17.40;49.50;;;;;;5917087;24;20159;-85
2023/10/25 00:47:33;;;;;;;1.60;1.30;;;17.40;49.50;;;;;;5947458;24;20214;-86
2023/10/25 00:50:07;;;;;;;2.67;1.20;;;17.40;49.50;;;;;;5925344;24;20156;-85
2023/10/25 00:52:43;;;;;;;2.05;1.20;;;17.40;49.60;;;;;;5918666;24;20318;-85
2023/10/25 00:55:22;;;;;;;1.45;1.33;;;17.30;49.60;;;;;;5914926;24;20193;-85
2023/10/25 00:57:55;;;;;;;1.23;1.13;;;17.30;49.60;;;;;;5935945;24;20154;-85
2023/10/25 01:00:29;;;;;;;2.97;1.40;;;17.30;49.60;;;;;;5866857;24;20159;-85
2023/10/25 01:03:22;;;;;;;2.00;1.20;;;17.30;49.70;;;;;;5889932;24;20531;-85
2023/10/25 01:06:00;;;;;;;2.05;1.35;;;17.30;49.60;;;;;;5913404;24;20145;-84
2023/10/25 01:08:41;;;;;;;1.23;1.00;;;17.30;49.60;;;;;;5892556;24;20158;-87
2023/10/25 01:11:17;;;;;;;2.33;1.20;;;17.30;49.70;;;;;;5893915;24;20154;-85
2023/10/25 01:13:49;;;;;;;1.60;1.20;;;17.30;49.70;;;;;;5867378;24;20331;-85
2023/10/25 01:16:21;;;;;;;1.55;1.10;;;17.40;49.80;;;;;;5893295;24;20161;-86
2023/10/25 01:18:56;;;;;;;2.60;1.00;;;17.30;49.90;;;;;;5816747;24;20165;-86
2023/10/25 01:21:32;;;;;;;2.85;1.45;;;17.30;49.80;;;;;;5849326;24;20162;-86
2023/10/25 01:24:14;;;;;;;;;;;;;;;;;;;;;
2023/10/25 01:26:46;;;;;;;2.13;1.13;;;17.30;49.70;;;;;;5719950;25;20165;-85
2023/10/25 01:29:25;;;;;;;1.30;1.20;;;17.40;49.90;;;;;;5740679;25;20172;-86
2023/10/25 01:31:53;;;;;;;1.52;1.10;;;17.30;49.80;;;;;;5714686;25;20165;-85
2023/10/25 01:38:20;;;;;;;1.70;1.02;;;17.30;50.00;;;;;;5709937;25;20210;-86
2023/10/25 01:41:27;;;;;;;;;;;;;;;;;;;;;
2023/10/25 01:44:20;;;;;;;1.20;1.10;;;17.30;50.00;;;;;;5691067;25;20186;-85
2023/10/25 01:47:02;;;;;;;2.00;1.33;;;17.30;50.00;;;;;;5698455;25;20197;-85
2023/10/25 01:49:35;;;;;;;1.60;1.20;;;17.30;50.00;;;;;;5744236;24;20163;-85
2023/10/25 01:52:10;;;;;;;1.50;1.10;;;17.30;50.00;;;;;;5792122;24;20160;-85
2023/10/25 01:54:57;;;;;;;1.27;1.17;;;17.30;50.00;;;;;;5792214;24;20196;-85
2023/10/25 01:57:47;;;;;;;2.03;1.38;;;17.30;50.00;;;;;;5788061;24;20161;-85
2023/10/25 02:00:35;;;;;;;1.17;1.08;;;17.30;50.20;;;;;;5787148;24;20160;-86
2023/10/25 02:03:26;;;;;;;1.92;1.33;;;17.30;50.20;;;;;;5815201;24;20187;-86
2023/10/25 02:06:15;;;;;;;1.67;1.13;;;17.30;50.20;;;;;;5789842;24;20164;-86
2023/10/25 02:09:31;;;;;;;1.35;1.25;;;17.30;50.10;;;;;;5789934;24;20216;-85
2023/10/25 02:12:43;;;;;;;1.25;1.10;;;17.30;50.20;;;;;;5787428;24;20196;-86
2023/10/25 02:15:34;;;;;;;3.47;1.40;;;17.20;50.10;;;;;;5865306;24;20198;-85
2023/10/25 02:18:20;;;;;;;1.60;1.35;;;17.40;50.20;;;;;;5843174;24;20160;-85
2023/10/25 02:21:03;;;;;;;1.15;0.98;;;17.30;50.20;;;;;;5797850;24;20202;-86
2023/10/25 02:24:14;;;;;;;1.55;1.10;;;17.30;50.20;;;;;;5791153;24;20156;-85
2023/10/25 02:26:54;;;;;;;1.65;1.27;;;17.30;50.20;;;;;;5860361;24;20157;-85
2023/10/25 02:29:52;;;;;;;1.75;1.52;;;17.30;50.30;;;;;;5889571;24;20166;-85
2023/10/25 02:33:00;;;;;;;3.22;1.38;;;17.30;50.40;;;;;;5843589;24;20139;-86
2023/10/25 02:35:33;;;;;;;1.40;1.10;;;17.30;50.30;;;;;;5809898;24;20618;-85
2023/10/25 02:38:24;;;;;;;1.65;1.30;;;17.30;50.30;;;;;;5790760;24;20176;-87
2023/10/25 02:41:25;;;;;;;1.73;1.20;;;17.30;50.30;;;;;;5853067;24;20160;-86
2023/10/25 02:43:56;;;;;;;1.42;1.20;;;17.30;50.30;;;;;;5789219;24;20188;-86
2023/10/25 02:46:52;;;;;;;1.10;1.00;;;17.30;50.30;;;;;;5832650;24;20160;-86
2023/10/25 02:49:33;;;;;;;1.25;1.15;;;17.30;50.30;;;;;;5803468;24;20160;-86
2023/10/25 02:52:13;;;;;;;1.45;1.02;;;17.30;50.30;;;;;;5815575;24;20148;-85
2023/10/25 02:54:53;;;;;;;1.58;1.15;;;17.30;50.40;;;;;;5815156;24;20266;-86
2023/10/25 02:57:43;;;;;;;1.40;1.05;;;17.30;50.40;;;;;;5859013;24;20179;-86
2023/10/25 03:00:21;;;;;;;1.63;1.30;;;17.30;50.40;;;;;;5863815;24;20159;-86
2023/10/25 03:03:08;;;;;;;1.20;1.10;;;17.30;50.40;;;;;;5859293;24;20163;-86
2023/10/25 03:06:01;;;;;;;1.33;1.23;;;17.30;50.40;;;;;;5813029;24;20175;-85
2023/10/25 03:08:49;;;;;;;1.95;1.20;;;17.30;50.50;;;;;;5810209;24;20141;-85
2023/10/25 03:11:22;;;;;;;1.73;1.38;;;17.20;50.40;;;;;;5805805;24;20163;-85
2023/10/25 03:13:54;;;;;;;1.38;1.27;;;17.30;50.50;;;;;;5883193;24;20248;-88
2023/10/25 03:16:33;;;;;;;1.20;1.05;;;17.30;50.60;;;;;;5923047;24;20162;-86
2023/10/25 03:19:18;;;;;;;1.77;1.40;;;17.30;50.50;;;;;;5948393;24;20152;-86
2023/10/25 03:22:17;;;;;;;1.30;1.20;;;17.30;50.50;;;;;;5928979;24;20160;-86
2023/10/25 03:24:45;;;;;;;1.38;1.20;;;17.20;50.50;;;;;;5949102;24;20164;-86
2023/10/25 03:27:20;;;;;;;1.30;1.20;;;17.20;50.50;;;;;;5947113;24;20186;-85
2023/10/25 03:29:53;;;;;;;1.58;1.20;;;17.20;50.60;;;;;;5922759;24;20161;-85
2023/10/25 03:32:25;;;;;;;2.58;1.27;;;17.20;50.60;;;;;;5953651;24;20184;-85
2023/10/25 03:35:00;;;;;;;1.50;1.40;;;17.20;50.70;;;;;;5975744;24;20216;-86
2023/10/25 03:37:32;;;;;;;1.88;1.50;;;17.20;50.60;;;;;;5948555;24;20259;-86
2023/10/25 03:40:08;;;;;;;1.77;1.10;;;17.20;50.70;;;;;;5948366;24;20167;-86
2023/10/25 03:42:46;;;;;;;2.25;1.40;;;17.20;50.70;;;;;;5929914;24;20271;-86
2023/10/25 03:45:19;;;;;;;1.63;1.30;;;17.20;50.70;;;;;;5934826;24;20188;-84
2023/10/25 03:47:46;;;;;;;2.42;1.38;;;17.30;50.80;;;;;;5909255;24;20167;-85
2023/10/25 03:50:24;;;;;;;1.23;1.13;;;17.20;50.70;;;;;;5898388;24;20161;-85
2023/10/25 03:53:18;;;;;;;;;;;;;;;;;;;;;
2023/10/25 03:56:12;;;;;;;1.25;1.15;;;17.20;50.70;;;;;;5898573;24;20165;-85
2023/10/25 03:58:51;;;;;;;2.50;1.20;;;17.20;50.80;;;;;;5920686;24;20192;-85
2023/10/25 04:01:25;;;;;;;1.30;1.20;;;17.20;50.80;;;;;;5876674;24;20164;-85
2023/10/25 04:03:59;;;;;;;1.52;1.40;;;17.20;50.80;;;;;;5893943;24;20174;-86
2023/10/25 04:06:53;;;;;;;1.45;1.25;;;17.20;50.80;;;;;;5845410;24;20188;-85
2023/10/25 04:09:25;;;;;;;1.52;1.30;;;17.20;50.80;;;;;;5782597;24;20175;-85
2023/10/25 04:12:02;;;;;;;2.58;1.45;;;17.20;50.80;;;;;;5787521;24;20167;-86
2023/10/25 04:14:44;;;;;;;2.20;1.30;;;17.20;50.80;;;;;;5744009;24;20192;-85
2023/10/25 04:17:22;;;;;;;1.20;1.10;;;17.20;50.90;;;;;;5717851;25;20169;-85
2023/10/25 04:20:09;;;;;;;1.38;1.27;;;17.20;50.90;;;;;;5793988;24;20161;-85
2023/10/25 04:22:41;;;;;;;1.77;1.02;;;17.20;50.90;;;;;;5779338;24;20638;-85
2023/10/25 04:25:30;;;;;;;1.38;1.27;;;17.20;50.90;;;;;;5777793;24;20173;-85
2023/10/25 04:28:12;;;;;;;1.30;1.20;;;17.20;51.00;;;;;;5729379;25;20250;-86
2023/10/25 04:30:53;;;;;;;2.45;1.13;;;17.20;51.00;;;;;;5777045;24;20181;-85
2023/10/25 04:33:24;;;;;;;1.52;1.40;;;17.20;51.00;;;;;;5807564;24;20271;-87
2023/10/25 04:36:03;;;;;;;1.23;1.10;;;17.20;51.00;;;;;;5802616;24;20172;-86
2023/10/25 04:38:40;;;;;;;1.35;1.20;;;17.20;51.00;;;;;;5807723;24;20156;-86
2023/10/25 04:41:19;;;;;;;1.65;1.33;;;17.20;51.00;;;;;;5813585;24;20607;-86
2023/10/25 04:44:17;;;;;;;1.85;1.38;;;17.20;51.00;;;;;;5810257;24;20208;-86
2023/10/25 04:46:56;;;;;;;1.38;1.27;;;17.20;51.00;;;;;;5816809;24;20163;-86
2023/10/25 04:49:57;;;;;;;1.27;1.17;;;17.20;51.00;;;;;;5787303;24;20161;-86
2023/10/25 04:52:52;;;;;;;1.75;1.20;;;17.20;51.00;;;;;;5788128;24;20168;-86
2023/10/25 04:55:29;;;;;;;1.33;1.10;;;17.20;51.10;;;;;;5786086;24;20203;-86
2023/10/25 04:58:06;;;;;;;2.25;1.33;;;17.20;51.10;;;;;;5786436;24;20193;-85
2023/10/25 05:00:55;;;;;;;1.48;1.33;;;17.20;51.10;;;;;;5760658;25;20243;-85
2023/10/25 05:03:38;;;;;;;1.58;1.38;;;17.20;51.10;;;;;;5759759;25;20168;-84
2023/10/25 05:06:11;;;;;;;1.20;1.10;;;17.20;51.10;;;;;;5766929;24;20149;-85
2023/10/25 05:08:39;;;;;;;1.38;1.27;;;17.20;51.20;;;;;;5734363;25;20519;-86
2023/10/25 05:11:13;;;;;;;1.70;1.25;;;17.20;51.10;;;;;;5743824;25;20158;-85
2023/10/25 05:13:49;;;;;;;2.00;1.40;;;17.20;51.20;;;;;;5759916;25;20188;-86
2023/10/25 05:16:34;;;;;;;1.33;1.23;;;17.20;51.20;;;;;;5753221;24;20158;-86
2023/10/25 05:19:12;;;;;;;2.08;1.38;;;17.20;51.20;;;;;;5782106;24;20188;-86
2023/10/25 05:22:12;;;;;;;1.65;1.30;;;17.20;51.20;;;;;;5839640;24;20170;-86
2023/10/25 05:25:00;;;;;;;;;;;;;;;;;;;;;
2023/10/25 05:27:35;;;;;;;2.50;1.20;;;17.20;51.20;;;;;;5835579;24;20159;-85
2023/10/25 05:30:27;;;;;;;1.35;1.17;;;17.20;51.90;;;;;;5861766;24;20147;-86
2023/10/25 05:33:08;;;;;;;1.80;1.40;;;17.20;51.40;;;;;;5839348;24;20217;-86
2023/10/25 05:35:46;;;;;;;1.27;1.17;;;17.20;51.30;;;;;;5854633;24;20169;-86
2023/10/25 05:38:25;;;;;;;1.25;1.15;;;17.20;51.30;;;;;;5904017;24;20181;-86
2023/10/25 05:41:19;;;;;;;1.50;1.40;;;17.20;51.30;;;;;;5917660;24;20157;-85
2023/10/25 05:44:09;;;;;;;1.40;1.30;;;17.20;51.00;;;;;;5834593;24;20267;-85
2023/10/25 05:46:56;;;;;;;1.90;1.58;;;17.20;50.80;;;;;;5780801;24;20164;-86
2023/10/25 05:49:34;;;;;;;1.20;1.10;;;17.30;50.40;;;;;;5821423;24;20158;-85
2023/10/25 05:52:31;;;;;;;1.50;1.35;;;17.30;50.20;;;;;;5905282;24;20162;-85
2023/10/25 05:54:58;;;;;;;1.88;1.60;;;17.30;49.90;;;;;;5870693;24;20254;-85
2023/10/25 05:57:30;;;;;;;2.33;1.55;;;17.30;49.80;;;;;;5827854;24;20223;-84
2023/10/25 05:59:59;;;;;;;1.60;1.50;;;17.30;49.50;;;;;;5872574;24;20164;-85
2023/10/25 06:02:44;;;;;;;1.42;1.33;;;17.40;49.30;;;;;;5845753;24;20144;-87
2023/10/25 06:05:26;;;;;;;1.77;1.35;;;17.40;49.00;;;;;;5835370;24;20156;-87
2023/10/25 06:08:01;;;;;;;1.90;1.40;;;17.40;48.90;;;;;;5792809;24;20239;-87
2023/10/25 06:11:10;;;;;;;1.58;1.48;;;17.50;48.70;;;;;;5858242;24;20155;-87
2023/10/25 06:14:06;;;;;;;1.63;1.52;;;17.50;48.70;;;;;;5917640;24;20185;-87
2023/10/25 06:16:37;;;;;;;1.48;1.38;;;17.50;48.60;;;;;;5912391;24;20165;-85
2023/10/25 06:19:10;;;;;;;1.48;1.38;;;17.50;48.80;;;;;;5904833;24;20153;-87
2023/10/25 06:21:42;;;;;;;1.40;1.30;;;17.40;48.60;;;;;;5870929;24;20611;-87
2023/10/25 06:24:08;;;;;;;2.72;1.70;;;17.40;48.70;;;;;;5905629;24;20193;-86
2023/10/25 06:26:48;;;;;;;1.77;1.50;;;17.40;48.60;;;;;;5880418;24;20162;-86
2023/10/25 06:29:19;;;;;;;2.33;1.58;;;17.50;48.50;;;;;;5949231;24;20247;-86
2023/10/25 06:32:00;;;;;;;1.63;1.52;;;17.50;48.40;;;;;;5960646;24;20291;-85
2023/10/25 06:34:57;;;;;;;1.67;1.55;;;17.50;48.40;;;;;;6025972;23;20201;-85
2023/10/25 06:37:34;;;;;;;1.83;1.60;;;17.50;48.30;;;;;;6033639;23;20633;-85
2023/10/25 06:43:36;;;;;;;1.92;1.52;;;17.50;48.20;;;;;;5989203;23;20273;-85
2023/10/25 06:46:13;;;;;;;1.58;1.30;;;17.50;48.30;;;;;;5971495;23;20151;-87
2023/10/25 06:48:43;;;;;;;1.85;1.55;;;17.40;48.20;;;;;;5972065;23;20646;-86
2023/10/25 06:51:17;;;;;;;1.90;1.60;;;17.40;48.20;;;;;;6012559;23;20150;-84
2023/10/25 06:54:09;;;;;;;1.90;1.70;;;17.50;48.20;;;;;;6048133;23;20244;-86
2023/10/25 06:56:46;;;;;;;2.75;1.70;;;17.50;48.30;;;;;;6048999;23;20264;-85
2023/10/25 06:59:43;;;;;;;;;;;;;;;;;;;;;
2023/10/25 07:06:35;;;;;;;2.22;1.90;;;17.40;47.90;;;;;;5887433;24;20153;-85
2023/10/25 07:08:45;;;;;;;2.40;1.80;;;17.50;47.90;;;;;;5846891;24;20158;-86
2023/10/25 07:11:14;;;;;;;1.83;1.67;;;17.50;48.00;;;;;;5852209;24;20568;-85
2023/10/25 07:13:42;;;;;;;1.70;1.60;;;17.50;48.10;;;;;;5828810;24;20194;-86
2023/10/25 07:16:40;;;;;;;1.98;1.73;;;17.50;48.20;;;;;;5825201;24;20159;-84
2023/10/25 07:19:10;;;;;;;1.88;1.65;;;17.50;48.10;;;;;;5749955;24;20165;-85
2023/10/25 07:22:07;;;;;;;2.10;1.80;;;17.50;48.20;;;;;;5777439;24;20281;-86
2023/10/25 07:25:01;;;;;;;2.15;1.85;;;17.50;48.30;;;;;;5757311;24;20161;-86
2023/10/25 07:28:07;;;;;;;1.90;1.70;;;17.50;48.40;;;;;;5760390;24;20199;-87
2023/10/25 08:03:04;;;;;;;2.08;1.88;;;17.90;47.60;;;;;;6193361;23;20541;-85
2023/10/25 08:05:38;;;;;;;4.38;1.90;;;17.80;47.60;;;;;;6099734;23;20170;-85
2023/10/25 08:08:11;;;;;;;2.83;1.88;;;17.90;47.60;;;;;;6123469;23;20155;-85
2023/10/25 08:10:42;;;;;;;1.80;1.50;;;17.90;47.40;;;;;;6172495;23;20286;-84
2023/10/25 08:13:38;;;;;;;2.45;1.95;;;17.90;47.50;;;;;;6097297;23;20155;-86
2023/10/25 08:16:11;;;;;;;2.10;1.90;;;17.90;47.50;;;;;;6095666;23;20597;-85
2023/10/25 08:18:51;;;;;;;1.98;1.77;;;17.80;47.70;;;;;;6066568;23;20183;-85
2023/10/25 08:21:17;;;;;;;2.40;1.90;;;17.90;47.70;;;;;;6144051;23;20147;-85
2023/10/25 08:23:45;;;;;;;3.22;2.00;;;17.90;47.70;;;;;;6116900;23;20232;-85
2023/10/25 08:26:26;;;;;;;2.83;1.80;;;17.90;47.70;;;;;;6140003;23;20154;-84
2023/10/25 08:28:53;;;;;;;3.80;2.10;;;17.90;47.60;;;;;;6117465;23;20161;-84
2023/10/25 08:31:28;;;;;;;3.30;2.05;;;17.90;47.60;;;;;;6139396;23;20135;-84
2023/10/25 08:34:21;;;;;;;5.63;2.20;;;17.90;47.60;;;;;;6085435;23;20209;-86
2023/10/25 10:07:32;;;;;;;4.40;2.10;;;18.20;48.10;;;;;;6150580;23;20182;-85
2023/10/25 10:11:04;;;;;;;6.55;2.50;;;18.10;48.30;;;;;;6122567;23;20160;-85
2023/10/25 10:13:21;;;;;;;9.40;2.17;;;18.20;48.30;;;;;;6096059;23;20163;-85
2023/10/25 10:16:05;;;;;;;7.53;2.30;;;18.20;48.50;;;;;;6041306;23;20165;-85
2023/10/25 10:18:45;;;;;;;8.82;2.10;;;18.20;48.30;;;;;;6018398;23;20157;-85
2023/10/25 10:21:52;;;;;;;;;;;;;;;;;;;;;
2023/10/25 10:24:41;;;;;;;6.90;2.47;;;18.20;48.10;;;;;;5948677;23;20235;-85
2023/10/25 10:28:19;;;;;;;7.75;2.40;;;18.20;48.30;;;;;;5964125;23;20218;-86
2023/10/25 10:30:33;;;;;;;2.83;2.17;;;18.20;48.10;;;;;;5997254;23;20686;-85
2023/10/25 10:33:12;;;;;;;3.88;2.00;;;18.20;47.90;;;;;;6011004;23;20147;-85
2023/10/25 10:39:30;;;;;;;5.18;1.80;;;18.20;47.80;;;;;;5856541;24;20170;-85
2023/10/25 10:48:55;;;;;;;4.00;1.95;;;18.20;47.80;;;;;;5797054;24;20282;-87
2023/10/25 10:51:36;;;;;;;4.72;1.90;;;18.20;47.80;;;;;;5795470;24;20172;-87
2023/10/25 10:54:44;;;;;;;2.65;1.83;;;18.20;47.80;;;;;;5773891;24;20195;-87
2023/10/25 10:57:14;;;;;;;5.32;2.00;;;18.20;47.80;;;;;;5744591;25;20224;-87
2023/10/25 10:59:49;;;;;;;4.53;2.05;;;18.20;47.70;;;;;;5719039;25;20514;-84
2023/10/25 11:02:38;;;;;;;5.35;1.92;;;18.20;47.70;;;;;;5715934;25;20224;-87
2023/10/25 11:05:07;;;;;;;6.40;1.80;;;18.20;47.60;;;;;;5692688;25;20242;-85
2023/10/25 11:07:36;;;;;;;4.60;1.80;;;18.30;47.60;;;;;;5666946;25;20286;-84
2023/10/25 11:10:13;;;;;;;4.18;1.60;;;18.20;47.50;;;;;;5727862;25;20189;-87
2023/10/25 11:12:49;;;;;;;5.38;1.92;;;18.30;47.50;;;;;;5694110;25;20162;-85
2023/10/25 11:15:24;;;;;;;2.45;1.80;;;18.30;47.40;;;;;;5708687;25;20205;-86
2023/10/25 11:17:56;;;;;;;2.67;2.08;;;18.30;47.40;;;;;;5738692;25;20158;-87
2023/10/25 11:20:22;;;;;;;8.02;2.00;;;18.30;47.60;;;;;;5738189;24;20190;-87
2023/10/25 11:23:02;;;;;;;6.80;1.83;;;18.40;48.50;;;;;;5813470;24;20166;-86
2023/10/25 11:25:48;;;;;;;5.07;1.90;;;18.40;48.00;;;;;;5848466;24;20158;-86
2023/10/25 11:28:41;;;;;;;3.22;1.98;;;18.60;47.80;;;;;;5838490;24;20313;-86
2023/10/25 11:31:49;;;;;;;4.25;2.00;;;18.60;47.50;;;;;;5876299;24;20598;-87
2023/10/25 11:34:13;;;;;;;4.60;2.05;;;18.60;47.50;;;;;;5849868;24;20194;-86
2023/10/25 11:36:45;;;;;;;6.55;2.38;;;18.50;47.00;;;;;;5830244;24;20154;-87
2023/10/25 11:39:25;;;;;;;;;;;;;;;;;;;;;
2023/10/25 11:41:55;;;;;;;7.47;1.90;;;18.50;47.60;;;;;;5801267;24;20186;-86
2023/10/25 11:44:24;;;;;;;2.95;1.75;;;18.50;47.70;;;;;;5799861;24;20164;-85
2023/10/25 11:46:55;;;;;;;3.42;1.80;;;18.50;47.30;;;;;;5747340;25;20166;-85
2023/10/25 11:49:21;;;;;;;6.10;1.90;;;18.60;47.60;;;;;;5766808;24;20169;-86
2023/10/25 11:54:44;;;;;;;3.72;1.98;;;18.50;47.70;;;;;;5799068;24;20188;-87
2023/10/25 12:52:34;;;;;;;4.32;1.77;;;18.80;46.20;;;;;;6265792;22;21116;-86
2023/10/25 13:09:28;;;;;;;3.83;1.67;;;18.70;46.10;;;;;;6133200;23;20148;-85
2023/10/25 13:11:56;;;;;;;6.88;1.60;;;18.70;45.70;;;;;;6081613;23;20167;-84
2023/10/25 13:14:28;;;;;;;2.75;1.80;;;18.70;45.70;;;;;;6081666;23;20172;-85
2023/10/25 13:17:01;;;;;;;3.20;1.70;;;18.70;46.30;;;;;;6084900;23;20132;-84
2023/10/25 13:19:35;;;;;;;3.70;1.83;;;18.70;46.30;;;;;;6109281;23;20143;-83
2023/10/25 13:22:10;;;;;;;4.07;1.77;;;18.70;46.00;;;;;;6118462;23;20158;-84
2023/10/25 13:24:48;;;;;;;3.60;1.50;;;18.80;46.00;;;;;;6100916;23;20172;-86
2023/10/25 13:27:14;;;;;;;4.57;1.60;;;18.80;45.80;;;;;;6077516;23;20156;-84
2023/10/25 13:29:41;;;;;;;3.40;1.63;;;18.80;45.60;;;;;;6075904;23;20167;-84
2023/10/25 13:32:11;;;;;;;2.50;1.40;;;18.80;45.80;;;;;;6075692;23;20160;-88
2023/10/25 13:34:38;;;;;;;3.15;1.70;;;18.90;45.60;;;;;;6103813;23;20663;-84
2023/10/25 13:37:12;;;;;;;3.92;1.63;;;18.90;45.50;;;;;;6106916;23;20149;-85
2023/10/25 13:43:25;;;;;;;6.25;1.92;;;18.90;45.50;;;;;;6044145;23;20189;-86
2023/10/25 13:45:58;;;;;;;4.55;1.80;;;18.90;45.80;;;;;;6007956;23;20206;-88
2023/10/25 13:48:48;;;;;;;2.17;1.50;;;18.80;45.90;;;;;;5983674;23;20163;-83
2023/10/25 13:51:30;;;;;;;3.85;1.50;;;18.80;46.60;;;;;;5979841;24;20185;-88
2023/10/25 13:53:57;;;;;;;3.05;1.40;;;18.80;45.70;;;;;;5958752;24;20231;-89
2023/10/25 13:56:59;;;;;;;2.65;1.48;;;18.80;46.30;;;;;;5983432;24;20636;-88
2023/10/25 14:00:32;;;;;;;;;;;;;;;;;;;;;
2023/10/25 14:03:00;;;;;;;4.20;1.42;;;18.90;45.70;;;;;;5892270;24;20457;-85
2023/10/25 14:06:05;;;;;;;4.68;1.30;;;18.90;45.60;;;;;;5910148;24;20228;-90
2023/10/25 14:15:49;;;;;;;2.50;1.58;;;18.90;44.90;;;;;;5851908;24;20209;-88
2023/10/25 14:21:38;;;;;;;1.67;1.30;;;18.80;45.10;;;;;;5933602;24;20160;-88
2023/10/25 14:24:05;;;;;;;2.53;1.42;;;18.80;44.80;;;;;;5926395;24;20160;-86
2023/10/25 14:26:32;;;;;;;2.53;1.60;;;18.80;44.60;;;;;;5923664;24;20269;-86
2023/10/25 14:32:31;;;;;;;2.47;1.42;;;18.70;44.70;;;;;;5872979;24;20162;-87
2023/10/25 14:43:38;;;;;;;;;;;;;;;;;;;;;
2023/10/25 14:49:26;;;;;;;1.40;1.23;;;18.70;44.70;;;;;;5665185;25;20193;-87
2023/10/25 16:17:22;;;;;;;3.30;1.42;;;18.70;44.00;;;;;;6190927;23;20205;-84
2023/10/25 16:19:47;;;;;;;4.15;1.50;;;18.70;43.90;;;;;;6165706;23;20131;-85
2023/10/25 16:22:19;;;;;;;2.72;1.27;;;18.60;44.00;;;;;;6144046;23;20147;-84
2023/10/25 16:26:20;;;;;;;;;;;;;;;;;;;;;
2023/10/25 16:28:24;;;;;;;2.88;1.30;;;18.70;43.50;;;;;;5985086;24;20166;-84
2023/10/25 16:35:14;;;;;;;;;;;;;;;;;;;;;
2023/10/25 16:38:11;;;;;;;3.58;1.30;;;18.70;43.40;;;;;;5777797;24;20180;-87
2023/10/25 16:41:16;;;;;;;2.90;1.30;;;18.70;43.30;;;;;;5698368;25;20183;-87
2023/10/25 16:44:10;;;;;;;2.47;1.15;;;18.70;43.60;;;;;;5674221;25;20178;-87
2023/10/25 16:50:25;;;;;;;2.45;1.30;;;18.70;43.40;;;;;;5699612;25;20194;-87
2023/10/25 16:53:48;;;;;;;2.15;1.38;;;18.70;43.70;;;;;;5637128;25;20171;-87
2023/10/25 17:02:37;;;;;;;3.83;1.05;;;18.80;44.00;;;;;;5633668;25;20202;-84
2023/10/25 17:05:10;;;;;;;3.03;0.90;;;18.70;43.90;;;;;;5623506;25;20169;-86
2023/10/25 17:07:43;;;;;;;5.25;1.33;;;18.70;43.80;;;;;;5662112;25;20199;-85
2023/10/25 17:10:18;;;;;;;1.95;1.02;;;18.70;43.80;;;;;;5617982;25;20168;-85
2023/10/25 17:15:59;;;;;;;2.03;0.95;;;18.80;43.60;;;;;;5611713;25;20229;-86
2023/10/25 17:18:39;;;;;;;4.28;1.25;;;18.80;43.60;;;;;;5578295;25;20205;-84
2023/10/25 17:24:22;;;;;;;2.60;1.33;;;18.80;43.60;;;;;;5627925;25;20164;-85
2023/10/25 17:26:56;;;;;;;2.67;1.10;;;18.80;43.70;;;;;;5616553;25;20169;-86
2023/10/25 17:29:27;;;;;;;2.30;1.10;;;18.80;43.70;;;;;;5620302;25;20161;-86
2023/10/25 17:32:55;;;;;;;;;;;;;;;;;;;;;
2023/10/25 17:39:23;;;;;;;;;;;;;;;;;;;;;
2023/10/25 17:59:56;;;;;;;4.10;1.23;;;18.70;43.70;;;;;;5578898;25;20207;-86
2023/10/25 18:02:29;;;;;;;1.17;0.80;;;18.80;43.80;;;;;;5548802;25;20166;-88
2023/10/25 18:05:34;;;;;;;3.50;0.90;;;18.70;43.70;;;;;;5581405;25;20201;-87
2023/10/25 18:08:06;;;;;;;1.95;1.02;;;18.70;43.80;;;;;;5577418;25;20226;-86
